Time;durP1;ratioP1;P1;durP2;ratioP2;P2;SDS_P1;SDS_P2;PMS_P1;PMS_P2;Temp;Humidity;BMP_temperature;BMP_pressure;BME280_temperature;BME280_humidity;BME280_pressure;Samples;Min_cycle;Max_cycle;Signal;HPM_P1;HPM_P2
2022/09/11 12:44:31;;;;;;;9.05;4.97;;;;;;;16.85;100.00;100951.13;5083519;27;20175;-81
2022/09/11 12:46:57;;;;;;;7.72;5.47;;;;;;;16.83;100.00;100954.78;5066782;28;20044;-80
2022/09/11 12:49:24;;;;;;;8.02;5.22;;;;;;;16.98;100.00;100948.78;5066800;28;20094;-81
2022/09/11 12:52:00;;;;;;;5.78;4.65;;;;;;;16.94;100.00;100955.19;5062838;28;20044;-82
2022/09/11 12:54:32;;;;;;;5.80;4.75;;;;;;;16.96;100.00;100949.78;5044302;28;20134;-82
2022/09/11 12:57:08;;;;;;;6.40;5.00;;;;;;;16.89;100.00;100950.03;5066880;28;20044;-80
2022/09/11 12:59:37;;;;;;;6.78;4.90;;;;;;;16.96;100.00;100964.00;5070156;28;20150;-79
2022/09/11 13:02:23;;;;;;;6.75;5.63;;;;;;;17.01;100.00;100953.13;5044506;28;20492;-81
2022/09/11 13:04:51;;;;;;;6.53;5.15;;;;;;;16.82;100.00;100953.91;5042036;28;20036;-82
2022/09/11 13:07:29;;;;;;;6.68;4.55;;;;;;;16.94;100.00;100957.88;5073957;28;20048;-82
2022/09/11 13:10:00;;;;;;;5.40;4.15;;;;;;;17.10;100.00;100945.59;5053507;28;20040;-82
2022/09/11 13:12:26;;;;;;;6.68;4.82;;;;;;;17.14;100.00;100946.31;5061123;28;20040;-82
2022/09/11 13:14:54;;;;;;;7.15;5.30;;;;;;;17.34;100.00;100953.50;5065778;28;20051;-80
2022/09/11 13:17:24;;;;;;;7.03;4.88;;;;;;;17.50;100.00;100945.66;5036541;28;20071;-81
2022/09/11 13:19:56;;;;;;;4.82;4.20;;;;;;;17.77;100.00;100944.44;5068128;28;20044;-80
2022/09/11 13:22:29;;;;;;;5.28;4.50;;;;;;;17.89;100.00;100941.19;5057133;28;20051;-81
2022/09/11 13:25:17;;;;;;;6.80;4.35;;;;;;;18.35;100.00;100936.38;5045904;28;20056;-82
2022/09/11 13:27:46;;;;;;;6.05;4.68;;;;;;;18.39;100.00;100937.94;5047970;28;20040;-83
2022/09/11 13:30:15;;;;;;;7.03;4.78;;;;;;;18.74;100.00;100932.69;5058305;28;20057;-82
2022/09/11 13:32:42;;;;;;;5.00;4.40;;;;;;;19.15;100.00;100933.28;5040933;28;20036;-81
2022/09/11 13:35:21;;;;;;;5.05;3.70;;;;;;;19.20;100.00;100925.88;5040346;28;20448;-85
2022/09/11 13:38:00;;;;;;;5.57;4.60;;;;;;;19.44;100.00;100928.22;5060535;28;20075;-82
2022/09/11 13:40:37;;;;;;;4.68;3.55;;;;;;;19.24;100.00;100934.59;5083585;28;20063;-83
2022/09/11 13:43:03;;;;;;;4.28;3.58;;;;;;;19.23;100.00;100928.38;5085660;28;20032;-84
2022/09/11 13:45:30;;;;;;;3.63;3.33;;;;;;;19.07;100.00;100928.31;5087450;28;20040;-84
2022/09/11 13:47:58;;;;;;;4.85;3.47;;;;;;;18.97;100.00;100931.53;5082778;28;20047;-87
2022/09/11 13:50:24;;;;;;;3.63;3.33;;;;;;;18.74;100.00;100927.34;5091198;28;20048;-86
2022/09/11 13:52:52;;;;;;;3.88;3.40;;;;;;;18.53;100.00;100930.13;5078168;28;20040;-86
2022/09/11 13:55:23;;;;;;;3.75;3.17;;;;;;;18.47;100.00;100926.88;5061122;28;20071;-85
2022/09/11 13:57:58;;;;;;;3.50;3.10;;;;;;;18.54;100.00;100934.53;5061930;28;20048;-84
2022/09/11 14:00:39;;;;;;;4.18;2.92;;;;;;;18.77;100.00;100932.56;5057917;28;20109;-84
2022/09/11 14:03:32;;;;;;;3.13;2.83;;;;;;;18.51;100.00;100929.34;5066359;28;20040;-86
2022/09/11 14:06:08;;;;;;;4.07;2.80;;;;;;;18.69;100.00;100922.22;5062530;28;20542;-85
2022/09/11 14:08:41;;;;;;;3.83;2.58;;;;;;;18.73;100.00;100926.47;5100654;28;20047;-85
2022/09/11 14:11:14;;;;;;;4.00;2.65;;;;;;;18.82;100.00;100922.47;5053539;28;20044;-84
2022/09/11 14:13:57;;;;;;;2.97;2.25;;;;;;;18.75;96.67;100926.41;5064695;28;20698;-85
2022/09/11 14:16:27;;;;;;;3.90;2.88;;;;;;;18.60;100.00;100922.66;5064183;28;20040;-84
2022/09/11 14:19:20;;;;;;;2.60;2.40;;;;;;;18.50;100.00;100921.38;5078052;28;20048;-86
2022/09/11 14:21:48;;;;;;;3.33;2.35;;;;;;;18.42;100.00;100918.22;5067173;28;20048;-84
2022/09/11 14:24:21;;;;;;;3.13;2.55;;;;;;;18.23;100.00;100923.56;5064295;28;20044;-83
2022/09/11 14:26:47;;;;;;;2.90;2.60;;;;;;;18.11;100.00;100916.16;5067910;28;20045;-84
2022/09/11 14:29:54;;;;;;;2.83;2.40;;;;;;;17.83;100.00;100920.13;5054555;28;20090;-83
2022/09/11 14:32:35;;;;;;;4.68;2.78;;;;;;;18.00;100.00;100922.00;5037299;28;20369;-83
2022/09/11 14:35:05;;;;;;;2.95;2.10;;;;;;;18.05;100.00;100922.66;5054949;28;20098;-83
2022/09/11 14:37:35;;;;;;;3.03;2.42;;;;;;;17.88;100.00;100919.91;5068069;28;20047;-84
2022/09/11 14:40:05;;;;;;;5.70;2.60;;;;;;;17.70;100.00;100921.63;5074887;28;20036;-83
2022/09/11 14:42:33;;;;;;;4.15;2.45;;;;;;;17.67;100.00;100922.59;5056047;28;20482;-83
2022/09/11 14:45:08;;;;;;;2.90;2.60;;;;;;;17.68;100.00;100926.13;5054606;28;20454;-84
2022/09/11 14:47:35;;;;;;;3.17;2.70;;;;;;;17.72;100.00;100925.06;5051841;28;20036;-84
2022/09/11 14:50:02;;;;;;;3.10;2.80;;;;;;;17.75;100.00;100926.75;5067523;28;20062;-83
2022/09/11 14:52:29;;;;;;;3.45;2.90;;;;;;;17.77;100.00;100931.09;5054642;28;20554;-84
2022/09/11 14:54:55;;;;;;;3.50;2.95;;;;;;;17.69;100.00;100920.72;5055694;28;20043;-83
2022/09/11 14:57:25;;;;;;;4.38;3.08;;;;;;;17.78;100.00;100927.47;5038522;28;20489;-83
2022/09/11 14:59:51;;;;;;;3.20;2.45;;;;;;;17.99;100.00;100925.59;5050630;28;20093;-83
2022/09/11 15:02:23;;;;;;;4.18;2.70;;;;;;;18.01;100.00;100921.06;5055801;28;20040;-84
2022/09/11 15:04:52;;;;;;;3.88;2.42;;;;;;;18.34;100.00;100936.44;5056832;28;20040;-85
2022/09/11 15:07:22;;;;;;;3.42;2.63;;;;;;;18.25;100.00;100927.06;5063835;28;20044;-83
2022/09/11 15:09:49;;;;;;;3.13;2.13;;;;;;;18.23;100.00;100927.09;5081924;28;20040;-83
2022/09/11 15:12:16;;;;;;;4.68;2.53;;;;;;;18.22;100.00;100929.88;5063913;28;20036;-84
2022/09/11 15:14:43;;;;;;;3.13;2.15;;;;;;;18.24;100.00;100939.56;5060323;28;20048;-82
2022/09/11 15:17:23;;;;;;;3.58;2.45;;;;;;;18.03;100.00;100926.34;5059639;28;20071;-82
2022/09/11 15:19:51;;;;;;;3.85;2.30;;;;;;;17.99;100.00;100937.19;5037529;28;20464;-82
2022/09/11 15:22:18;;;;;;;3.45;2.40;;;;;;;18.02;100.00;100941.50;5035342;28;20052;-83
2022/09/11 15:24:47;;;;;;;3.40;2.42;;;;;;;17.82;100.00;100952.25;5065430;28;20519;-82
2022/09/11 15:27:14;;;;;;;2.72;2.50;;;;;;;17.74;100.00;100947.28;5058832;28;20743;-84
2022/09/11 15:29:41;;;;;;;3.22;2.75;;;;;;;17.55;100.00;100949.00;5048218;28;20063;-84
2022/09/11 15:32:09;;;;;;;3.90;2.53;;;;;;;17.76;100.00;100955.22;5078088;28;20131;-83
2022/09/11 15:34:37;;;;;;;4.72;2.75;;;;;;;17.69;100.00;100960.81;5065854;28;20098;-83
2022/09/11 15:37:04;;;;;;;3.13;2.08;;;;;;;17.57;100.00;100956.03;5071498;28;20051;-83
2022/09/11 15:39:32;;;;;;;3.15;2.28;;;;;;;17.40;100.00;100956.78;5051140;28;20044;-85
2022/09/11 15:42:02;;;;;;;3.33;2.00;;;;;;;17.47;100.00;100945.78;5048741;28;20604;-85
2022/09/11 15:44:29;;;;;;;2.10;1.90;;;;;;;17.50;100.00;100951.03;5073348;28;20044;-85
2022/09/11 15:46:57;;;;;;;2.30;2.03;;;;;;;17.53;100.00;100950.88;5037203;28;20052;-84
2022/09/11 15:49:26;;;;;;;2.65;1.70;;;;;;;17.45;100.00;100952.06;5071201;28;20043;-84
2022/09/11 15:51:54;;;;;;;3.75;2.13;;;;;;;17.47;100.00;100953.81;5044027;28;20130;-83
2022/09/11 15:54:22;;;;;;;3.78;1.90;;;;;;;17.62;100.00;100958.47;5053889;28;20040;-84
2022/09/11 15:56:49;;;;;;;2.20;2.00;;;;;;;17.69;100.00;100959.94;5036846;28;20127;-85
2022/09/11 15:59:16;;;;;;;5.05;2.15;;;;;;;17.61;100.00;100957.59;5053277;28;20045;-85
2022/09/11 16:01:43;;;;;;;2.88;2.03;;;;;;;17.62;100.00;100956.66;5069286;28;20059;-85
2022/09/11 16:04:13;;;;;;;2.55;1.80;;;;;;;17.58;100.00;100957.75;5053238;28;20044;-84
2022/09/11 16:06:44;;;;;;;1.48;1.38;;;;;;;17.45;100.00;100961.88;5041436;28;20044;-83
2022/09/11 16:09:20;;;;;;;4.22;1.60;;;;;;;17.32;100.00;100956.22;5041053;28;20048;-84
2022/09/11 16:11:49;;;;;;;1.70;1.55;;;;;;;17.25;100.00;100964.56;5066470;28;20044;-84
2022/09/11 16:14:24;;;;;;;2.90;1.40;;;;;;;17.14;100.00;100957.88;5056544;28;20063;-84
2022/09/11 16:16:51;;;;;;;2.20;1.70;;;;;;;17.04;100.00;100963.69;5050207;28;20049;-83
2022/09/11 16:19:20;;;;;;;2.33;1.40;;;;;;;16.88;100.00;100956.31;5054113;28;20558;-82
2022/09/11 16:21:48;;;;;;;2.35;1.75;;;;;;;16.95;100.00;100954.25;5050321;28;20067;-83
2022/09/11 16:24:16;;;;;;;2.05;1.77;;;;;;;16.72;100.00;100955.22;5044997;28;20062;-84
2022/09/11 16:26:43;;;;;;;1.98;1.77;;;;;;;16.54;100.00;100953.25;5067397;28;20132;-82
2022/09/11 16:29:11;;;;;;;1.80;1.60;;;;;;;16.48;100.00;100958.84;5047643;28;20480;-84
2022/09/11 16:31:38;;;;;;;1.90;1.63;;;;;;;16.51;100.00;100956.94;5058909;28;20068;-84
2022/09/11 16:34:06;;;;;;;3.60;2.10;;;;;;;16.47;100.00;100955.31;5053167;28;20029;-83
2022/09/11 16:36:41;;;;;;;2.55;1.90;;;;;;;16.40;100.00;100958.31;5049921;28;20392;-81
2022/09/11 16:39:11;;;;;;;2.55;2.00;;;;;;;16.37;100.00;100955.72;5054352;28;20086;-84
2022/09/11 16:41:38;;;;;;;2.50;2.05;;;;;;;16.21;100.00;100945.66;5035759;28;20792;-83
2022/09/11 16:44:07;;;;;;;2.50;2.13;;;;;;;16.10;100.00;100952.38;5049470;28;20048;-82
2022/09/11 16:46:34;;;;;;;3.80;2.45;;;;;;;16.11;100.00;100952.28;5038955;28;20040;-83
2022/09/11 16:49:01;;;;;;;2.00;1.80;;;;;;;16.08;100.00;100952.44;5055409;28;20052;-82
2022/09/11 16:51:28;;;;;;;2.63;2.00;;;;;;;16.01;100.00;100953.59;5063475;28;20044;-83
2022/09/11 16:53:55;;;;;;;3.03;2.03;;;;;;;16.07;100.00;100953.34;5048175;28;20086;-81
2022/09/11 16:56:23;;;;;;;2.42;2.22;;;;;;;16.03;100.00;100944.59;5050842;28;20048;-84
2022/09/11 16:58:50;;;;;;;2.58;2.10;;;;;;;15.91;100.00;100953.06;5069704;28;22305;-83
2022/09/11 17:01:21;;;;;;;2.33;2.13;;;;;;;15.69;100.00;100949.47;5047934;28;20075;-82
2022/09/11 17:03:50;;;;;;;2.22;2.03;;;;;;;15.54;100.00;100949.97;5077769;28;20085;-83
2022/09/11 17:06:19;;;;;;;2.58;1.80;;;;;;;15.52;100.00;100955.38;5059039;28;21880;-84
2022/09/11 17:08:48;;;;;;;2.15;1.95;;;;;;;15.52;100.00;100963.34;5060686;28;20055;-83
2022/09/11 17:11:17;;;;;;;2.83;2.10;;;;;;;15.47;100.00;100955.56;5079900;28;20036;-83
2022/09/11 17:13:45;;;;;;;3.15;2.08;;;;;;;15.40;100.00;100958.47;5070795;28;20044;-83
2022/09/11 17:16:17;;;;;;;2.50;2.10;;;;;;;15.26;100.00;100958.97;5050308;28;20040;-82
2022/09/11 17:18:50;;;;;;;3.65;2.47;;;;;;;15.14;100.00;100967.38;5050651;28;20051;-83
2022/09/11 17:21:16;;;;;;;3.28;2.28;;;;;;;15.06;100.00;100964.97;5066835;28;20036;-84
2022/09/11 17:23:43;;;;;;;2.70;2.00;;;;;;;14.99;100.00;100971.44;5062973;28;20452;-84
2022/09/11 17:26:14;;;;;;;2.60;1.90;;;;;;;14.92;100.00;100973.41;5075301;28;20539;-82
2022/09/11 17:28:44;;;;;;;3.15;2.10;;;;;;;14.85;100.00;100971.88;5070676;28;20052;-83
2022/09/11 17:31:13;;;;;;;3.05;2.20;;;;;;;14.82;100.00;100969.34;5079440;28;20036;-84
2022/09/11 17:33:40;;;;;;;3.42;1.98;;;;;;;14.79;100.00;100969.41;5056032;28;20043;-83
2022/09/11 17:36:09;;;;;;;3.42;2.00;;;;;;;14.77;100.00;100973.06;5049836;28;20048;-84
2022/09/11 17:38:37;;;;;;;2.92;2.63;;;;;;;14.77;100.00;100970.38;5045890;28;20044;-84
2022/09/11 17:41:05;;;;;;;2.28;1.83;;;;;;;14.66;100.00;100969.88;5051874;28;20770;-84
2022/09/11 17:43:33;;;;;;;3.13;2.20;;;;;;;14.68;100.00;100968.03;5063836;28;20048;-84
2022/09/11 17:46:05;;;;;;;4.03;2.50;;;;;;;14.57;100.00;100961.28;5045701;28;20041;-83
2022/09/11 17:48:31;;;;;;;3.00;2.70;;;;;;;14.48;100.00;100963.38;5072595;28;20386;-83
2022/09/11 17:51:12;;;;;;;3.70;2.60;;;;;;;14.46;100.00;100965.19;5071909;28;20040;-85
2022/09/11 17:53:42;;;;;;;2.95;2.60;;;;;;;14.44;100.00;100967.84;5076055;28;20489;-83
2022/09/11 17:56:13;;;;;;;2.60;2.40;;;;;;;14.32;100.00;100968.25;5052227;28;20090;-83
2022/09/11 17:58:40;;;;;;;2.78;2.50;;;;;;;14.31;100.00;100967.38;5071810;28;20051;-84
2022/09/11 18:01:07;;;;;;;3.58;3.22;;;;;;;14.25;100.00;100961.38;5071250;28;20043;-84
2022/09/11 18:03:35;;;;;;;4.55;2.70;;;;;;;14.20;100.00;100966.81;5072660;28;20070;-84
2022/09/11 18:06:03;;;;;;;7.95;3.17;;;;;;;14.07;100.00;100966.34;5054950;28;20451;-83
2022/09/11 18:08:32;;;;;;;3.38;2.63;;;;;;;14.07;100.00;100971.66;5046178;28;20460;-83
2022/09/11 18:10:59;;;;;;;4.00;2.60;;;;;;;14.02;100.00;100962.94;5063584;28;20055;-83
2022/09/11 18:13:30;;;;;;;4.20;2.65;;;;;;;13.93;100.00;100968.53;5055222;28;20048;-83
2022/09/11 18:15:57;;;;;;;2.53;2.17;;;;;;;13.90;100.00;100979.25;5047572;28;20968;-84
2022/09/11 18:18:24;;;;;;;4.28;2.42;;;;;;;13.73;100.00;100977.09;5051957;28;20071;-83
2022/09/11 18:20:53;;;;;;;4.85;2.70;;;;;;;13.71;100.00;100978.06;5058487;28;20037;-84
2022/09/11 18:23:21;;;;;;;3.70;2.05;;;;;;;13.72;100.00;100974.47;5039359;28;20043;-83
2022/09/11 18:25:49;;;;;;;3.47;2.30;;;;;;;13.62;100.00;100979.19;5039527;28;20044;-83
2022/09/11 18:28:18;;;;;;;3.25;2.25;;;;;;;13.58;100.00;100977.50;5064131;28;20048;-83
2022/09/11 18:30:46;;;;;;;3.08;2.22;;;;;;;13.52;100.00;100975.00;5039361;28;20139;-83
2022/09/11 18:33:15;;;;;;;3.40;2.30;;;;;;;13.44;100.00;100983.19;5055795;28;20041;-83
2022/09/11 18:35:43;;;;;;;2.83;2.53;;;;;;;13.39;100.00;100986.91;5061683;28;21270;-82
2022/09/11 18:38:09;;;;;;;5.30;2.63;;;;;;;13.37;100.00;100978.06;5074954;28;20050;-83
2022/09/11 18:40:36;;;;;;;3.00;2.33;;;;;;;13.43;100.00;100989.41;5056901;28;20043;-83
2022/09/11 18:43:04;;;;;;;4.32;2.45;;;;;;;13.35;100.00;100985.22;5074237;28;20039;-83
2022/09/11 18:45:33;;;;;;;2.78;2.25;;;;;;;13.30;100.00;100987.16;5037475;28;20052;-83
2022/09/11 18:48:01;;;;;;;4.03;2.58;;;;;;;13.16;100.00;100996.28;5075824;28;20043;-82
2022/09/11 18:50:27;;;;;;;3.72;2.42;;;;;;;13.11;100.00;100999.97;5045646;28;20055;-82
2022/09/11 18:52:55;;;;;;;3.08;2.38;;;;;;;13.16;100.00;100995.41;5054524;28;20586;-83
2022/09/11 18:55:22;;;;;;;4.25;2.78;;;;;;;13.10;100.00;100998.22;5043697;28;20040;-84
2022/09/11 18:57:49;;;;;;;3.22;2.58;;;;;;;13.08;100.00;101002.69;5069116;28;20055;-82
2022/09/11 19:00:17;;;;;;;3.72;2.88;;;;;;;13.02;100.00;101002.84;5046391;28;20044;-84
2022/09/11 19:02:44;;;;;;;2.75;2.50;;;;;;;12.81;100.00;101007.78;5038018;28;20098;-83
2022/09/11 19:05:12;;;;;;;2.75;2.45;;;;;;;12.76;100.00;101012.31;5067288;28;20044;-83
2022/09/11 19:07:39;;;;;;;2.88;2.50;;;;;;;12.72;100.00;101012.44;5053434;28;20044;-83
2022/09/11 19:10:06;;;;;;;2.58;2.20;;;;;;;12.62;100.00;101010.00;5078840;28;20044;-84
2022/09/11 19:12:32;;;;;;;3.50;2.78;;;;;;;12.62;100.00;101009.13;5069463;28;20090;-84
2022/09/11 19:14:59;;;;;;;4.57;2.70;;;;;;;12.62;100.00;101007.34;5054882;28;20083;-82
2022/09/11 19:17:26;;;;;;;8.65;2.72;;;;;;;12.57;100.00;101006.56;5054902;28;20397;-82
2022/09/11 19:19:53;;;;;;;4.35;2.80;;;;;;;12.57;100.00;101005.69;5044690;28;20047;-85
2022/09/11 19:22:21;;;;;;;3.65;2.55;;;;;;;12.57;100.00;101011.88;5072588;28;20051;-82
2022/09/11 19:24:48;;;;;;;3.00;2.65;;;;;;;12.49;100.00;101016.47;5064158;28;20478;-83
2022/09/11 19:27:15;;;;;;;5.93;3.05;;;;;;;12.53;100.00;101017.28;5055041;28;20048;-84
2022/09/11 19:29:42;;;;;;;2.85;2.10;;;;;;;12.55;100.00;101012.81;5058469;28;20066;-84
2022/09/11 19:32:09;;;;;;;3.15;2.40;;;;;;;12.54;100.00;101016.38;5056398;28;20062;-83
2022/09/11 19:34:40;;;;;;;4.63;2.70;;;;;;;12.47;100.00;101017.44;5061053;28;20524;-83
2022/09/11 19:37:13;;;;;;;4.22;2.72;;;;;;;12.50;100.00;101023.53;5066656;28;20505;-83
2022/09/11 19:39:40;;;;;;;5.43;2.92;;;;;;;12.23;100.00;101013.53;5076766;28;20959;-82
2022/09/11 19:42:08;;;;;;;3.15;2.55;;;;;;;12.18;100.00;101018.03;5052748;28;20036;-83
2022/09/11 19:44:35;;;;;;;2.92;2.30;;;;;;;12.15;100.00;101026.94;5065689;28;20415;-83
2022/09/11 19:47:01;;;;;;;4.07;2.40;;;;;;;12.07;100.00;101031.53;5054121;28;20048;-83
2022/09/11 19:49:28;;;;;;;8.65;3.25;;;;;;;12.12;100.00;101034.97;5054598;28;20051;-83
2022/09/11 19:51:55;;;;;;;4.38;2.63;;;;;;;12.14;100.00;101033.16;5055024;28;20097;-82
2022/09/11 19:54:22;;;;;;;4.22;2.95;;;;;;;12.10;100.00;101034.97;5055084;28;20070;-83
2022/09/11 19:56:49;;;;;;;3.28;2.60;;;;;;;12.05;100.00;101038.63;5054106;28;20040;-82
2022/09/11 19:59:17;;;;;;;3.85;3.17;;;;;;;12.02;100.00;101036.94;5044539;28;20044;-82
2022/09/11 20:01:43;;;;;;;5.60;2.83;;;;;;;12.11;100.00;101041.16;5063399;28;20489;-82
2022/09/11 20:04:12;;;;;;;3.10;2.30;;;;;;;12.21;100.00;101044.50;5039052;28;20500;-82
2022/09/11 20:06:39;;;;;;;2.95;2.58;;;;;;;12.10;100.00;101037.63;5052477;28;20154;-85
2022/09/11 20:09:06;;;;;;;2.85;2.55;;;;;;;12.06;100.00;101038.59;5053813;28;20490;-83
2022/09/11 20:11:52;;;;;;;5.28;2.90;;;;;;;12.16;100.00;101041.94;5043621;28;20731;-82
2022/09/11 20:14:19;;;;;;;3.20;2.75;;;;;;;12.08;100.00;101039.44;5067778;28;20508;-83
2022/09/11 20:16:46;;;;;;;3.40;2.75;;;;;;;12.01;100.00;101044.88;5063693;28;20113;-82
2022/09/11 20:19:13;;;;;;;3.88;2.80;;;;;;;12.03;100.00;101036.03;5056923;28;20047;-82
2022/09/11 20:21:40;;;;;;;4.35;2.72;;;;;;;11.99;100.00;101044.06;5093135;28;20119;-82
2022/09/11 20:24:08;;;;;;;2.80;2.47;;;;;;;11.95;100.00;101048.56;5052472;28;20093;-85
2022/09/11 20:26:34;;;;;;;5.13;2.60;;;;;;;11.97;100.00;101053.81;5070072;28;20565;-82
2022/09/11 20:29:05;;;;;;;2.97;2.60;;;;;;;12.05;100.00;101047.44;5058364;28;20109;-84
2022/09/11 20:31:35;;;;;;;3.22;2.80;;;;;;;12.02;100.00;101049.28;5055648;28;20047;-82
2022/09/11 20:34:11;;;;;;;3.55;3.00;;;;;;;12.04;100.00;101047.50;5074122;28;20044;-83
2022/09/11 20:36:38;;;;;;;3.25;2.50;;;;;;;12.01;100.00;101050.19;5077513;28;20044;-82
2022/09/11 20:39:05;;;;;;;4.20;2.97;;;;;;;12.01;100.00;101042.22;5043665;28;20067;-82
2022/09/11 20:41:32;;;;;;;4.35;2.88;;;;;;;12.01;100.00;101044.88;5069336;28;20538;-83
2022/09/11 20:44:02;;;;;;;4.47;2.97;;;;;;;12.06;100.00;101054.50;5054559;28;20040;-82
2022/09/11 20:46:29;;;;;;;3.60;2.97;;;;;;;12.01;100.00;101048.41;5056113;28;20076;-84
2022/09/11 20:51:45;;;;;;;3.05;2.70;;;;;;;11.91;100.00;101045.97;5023977;28;20055;-86
2022/09/11 20:54:12;;;;;;;3.92;3.25;;;;;;;11.88;100.00;101051.34;5009953;28;20053;-85
2022/09/11 20:56:39;;;;;;;6.25;3.50;;;;;;;11.89;100.00;101053.09;4991548;28;20050;-84
2022/09/11 20:59:06;;;;;;;4.18;3.17;;;;;;;11.88;100.00;101044.28;4990231;28;20410;-83
2022/09/11 21:01:33;;;;;;;4.95;3.70;;;;;;;11.86;100.00;101047.84;4992023;28;20494;-86
2022/09/11 21:04:01;;;;;;;4.03;3.63;;;;;;;11.84;100.00;101051.38;4994036;28;20614;-83
2022/09/11 21:06:30;;;;;;;3.45;3.13;;;;;;;11.79;100.00;101050.59;4991083;28;20042;-84
2022/09/11 21:09:09;;;;;;;4.20;3.70;;;;;;;11.73;100.00;101055.13;4996618;28;20053;-84
2022/09/11 21:11:38;;;;;;;4.60;4.00;;;;;;;11.70;100.00;101053.41;4996812;28;20037;-84
2022/09/11 21:14:05;;;;;;;4.03;3.63;;;;;;;11.68;100.00;101052.53;5029839;28;20471;-82
2022/09/11 21:16:32;;;;;;;4.85;3.50;;;;;;;11.65;100.00;101049.09;5029724;28;20045;-84
2022/09/11 21:19:00;;;;;;;4.47;3.80;;;;;;;11.64;100.00;101052.66;5019429;28;20046;-83
2022/09/11 21:21:27;;;;;;;4.05;3.65;;;;;;;11.63;100.00;101056.19;5013188;28;20076;-83
2022/09/11 21:23:55;;;;;;;4.38;3.03;;;;;;;11.60;100.00;101049.16;4999305;28;20052;-86
2022/09/11 21:26:22;;;;;;;3.20;2.90;;;;;;;11.59;100.00;101054.50;4997193;28;20069;-85
2022/09/11 21:28:51;;;;;;;3.80;3.10;;;;;;;11.53;100.00;101047.56;4999639;28;20048;-83
2022/09/11 21:31:18;;;;;;;3.72;3.40;;;;;;;11.49;100.00;101057.31;4997843;28;20049;-85
2022/09/11 21:33:45;;;;;;;3.80;3.20;;;;;;;11.44;100.00;101053.88;5014591;28;20045;-82
2022/09/11 21:36:12;;;;;;;3.30;3.00;;;;;;;11.42;100.00;101057.44;5012304;28;20038;-84
2022/09/11 21:38:38;;;;;;;5.07;3.33;;;;;;;11.37;100.00;101052.25;4998174;28;20074;-85
2022/09/11 21:41:07;;;;;;;5.80;3.05;;;;;;;11.34;100.00;101051.41;5008759;28;20049;-83
2022/09/11 21:43:34;;;;;;;3.42;2.67;;;;;;;11.30;100.00;101052.38;4987720;28;20037;-84
2022/09/11 21:46:02;;;;;;;4.88;3.03;;;;;;;11.28;100.00;101055.91;4994218;28;20061;-85
2022/09/11 21:48:31;;;;;;;3.30;2.55;;;;;;;11.30;100.00;101055.88;4996004;28;20111;-84
2022/09/11 21:51:15;;;;;;;4.70;2.53;;;;;;;11.22;100.00;101052.50;4995655;28;20107;-84
2022/09/11 21:53:44;;;;;;;2.90;2.50;;;;;;;11.14;100.00;101047.34;4992899;28;20045;-84
2022/09/11 21:56:23;;;;;;;4.15;3.35;;;;;;;11.19;100.00;101055.22;4992627;28;20029;-84
2022/09/11 21:58:51;;;;;;;4.63;2.97;;;;;;;11.10;100.00;101050.94;5011538;28;20045;-84
2022/09/11 22:01:19;;;;;;;4.18;2.92;;;;;;;11.06;100.00;101054.53;4995817;28;20052;-84
2022/09/11 22:03:46;;;;;;;3.00;2.70;;;;;;;11.11;100.00;101051.81;5014028;28;20060;-84
2022/09/11 22:06:12;;;;;;;3.42;2.65;;;;;;;10.99;100.00;101055.50;4994063;28;20409;-84
2022/09/11 22:08:42;;;;;;;3.55;2.15;;;;;;;11.08;100.00;101054.50;4985468;28;20096;-83
2022/09/11 22:11:09;;;;;;;3.10;2.50;;;;;;;11.18;100.00;101051.69;4988262;28;20049;-83
2022/09/11 22:13:37;;;;;;;4.40;2.60;;;;;;;11.00;100.00;101054.63;5007217;28;20108;-85
2022/09/11 22:16:08;;;;;;;3.30;2.17;;;;;;;10.91;100.00;101049.47;5010717;28;20046;-83
2022/09/11 22:18:36;;;;;;;3.00;2.70;;;;;;;10.90;100.00;101053.00;4999627;28;20387;-83
2022/09/11 22:21:03;;;;;;;4.07;2.55;;;;;;;10.80;100.00;101046.13;4995232;28;20046;-83
2022/09/11 22:23:33;;;;;;;3.17;2.67;;;;;;;10.76;100.00;101047.06;5009752;28;20061;-83
2022/09/11 22:26:12;;;;;;;3.30;2.65;;;;;;;10.70;100.00;101058.63;5004324;28;20108;-83
2022/09/11 22:28:39;;;;;;;3.78;2.65;;;;;;;10.66;100.00;101057.75;4997115;28;20095;-83
2022/09/11 22:31:07;;;;;;;4.55;2.65;;;;;;;10.62;100.00;101049.94;4995796;28;20034;-83
2022/09/11 22:33:36;;;;;;;3.90;3.00;;;;;;;10.67;100.00;101051.59;5011979;28;20141;-83
2022/09/11 22:36:18;;;;;;;3.22;2.70;;;;;;;10.80;100.00;101051.41;4984897;28;20081;-83
2022/09/11 22:38:46;;;;;;;3.95;2.63;;;;;;;10.77;100.00;101052.34;5003990;28;20128;-85
2022/09/11 22:41:13;;;;;;;4.57;2.50;;;;;;;10.86;100.00;101056.63;5008968;28;20096;-83
2022/09/11 22:43:39;;;;;;;3.20;2.53;;;;;;;10.86;100.00;101049.56;5005437;28;20080;-83
2022/09/11 22:46:06;;;;;;;3.30;2.45;;;;;;;10.92;100.00;101057.38;5011795;28;20041;-84
2022/09/11 22:48:34;;;;;;;2.67;2.47;;;;;;;11.08;100.00;101054.50;5029641;28;20052;-85
2022/09/11 22:51:01;;;;;;;2.90;2.58;;;;;;;11.04;100.00;101052.81;4986756;28;20053;-83
2022/09/11 22:53:28;;;;;;;4.50;2.90;;;;;;;10.96;100.00;101048.50;5012695;28;20552;-83
2022/09/11 22:55:55;;;;;;;3.85;2.80;;;;;;;11.00;100.00;101050.19;4994175;28;20726;-83
2022/09/11 22:58:22;;;;;;;4.55;2.63;;;;;;;10.99;100.00;101047.59;5012495;28;20045;-84
2022/09/11 23:00:51;;;;;;;5.15;2.63;;;;;;;10.97;100.00;101041.44;5007831;28;20640;-84
2022/09/11 23:03:19;;;;;;;3.35;2.60;;;;;;;10.97;100.00;101044.09;5022877;28;20041;-82
2022/09/11 23:08:33;;;;;;;3.40;2.70;;;;;;;11.04;100.00;101047.53;5015840;28;20526;-85
2022/09/11 23:11:04;;;;;;;3.13;2.58;;;;;;;11.03;100.00;101045.78;5016971;28;20452;-82
2022/09/11 23:13:32;;;;;;;2.95;2.45;;;;;;;10.92;100.00;101046.81;5015905;28;20560;-82
2022/09/11 23:15:58;;;;;;;2.80;2.50;;;;;;;10.95;100.00;101041.47;5006792;28;20460;-83
2022/09/11 23:18:26;;;;;;;3.45;2.65;;;;;;;10.94;100.00;101041.50;5033221;28;20037;-82
2022/09/11 23:20:54;;;;;;;4.30;2.58;;;;;;;10.94;100.00;101041.50;5011864;28;20049;-82
2022/09/11 23:23:23;;;;;;;3.67;2.53;;;;;;;10.92;100.00;101044.16;5014953;28;20049;-82
2022/09/11 23:25:50;;;;;;;3.58;2.50;;;;;;;10.88;100.00;101046.88;5014784;28;20132;-83
2022/09/11 23:28:17;;;;;;;4.13;2.50;;;;;;;10.78;100.00;101047.94;5000521;28;20046;-82
2022/09/11 23:30:44;;;;;;;5.72;2.22;;;;;;;10.94;100.00;101050.31;5006249;28;20045;-82
2022/09/11 23:33:10;;;;;;;2.92;2.60;;;;;;;10.94;100.00;101050.31;5007189;28;20622;-83
2022/09/11 23:35:38;;;;;;;4.15;2.30;;;;;;;10.92;100.00;101048.56;4992768;28;20088;-83
2022/09/11 23:38:06;;;;;;;3.42;2.50;;;;;;;10.86;100.00;101041.63;5013436;28;20050;-84
2022/09/11 23:40:33;;;;;;;4.18;2.28;;;;;;;10.92;100.00;101038.00;5009148;28;20827;-84
2022/09/11 23:43:00;;;;;;;3.70;2.53;;;;;;;10.84;100.00;101037.25;5012306;28;20483;-83
2022/09/11 23:45:27;;;;;;;3.20;2.38;;;;;;;10.74;100.00;101035.66;5013388;28;20446;-84
2022/09/11 23:47:54;;;;;;;3.25;2.40;;;;;;;10.69;100.00;101036.59;5012506;28;20045;-83
2022/09/11 23:50:21;;;;;;;3.75;2.67;;;;;;;10.61;100.00;101032.31;5004381;28;20094;-83
2022/09/11 23:52:48;;;;;;;3.30;2.58;;;;;;;10.52;100.00;101029.81;4980143;28;20095;-83
2022/09/11 23:55:17;;;;;;;4.53;2.50;;;;;;;10.48;100.00;101039.53;4995437;28;20439;-83
2022/09/11 23:57:45;;;;;;;4.93;2.08;;;;;;;10.47;100.00;101036.94;5014158;28;20052;-83
